createdAt,value
2023-01-19T00:00:52.872Z,18.87
2023-01-19T00:03:21.676Z,19.93
2023-01-19T00:05:49.003Z,18.47
2023-01-19T00:08:16.308Z,18.60
2023-01-19T00:10:44.578Z,18.97
2023-01-19T00:13:11.713Z,19.50
2023-01-19T00:15:39.248Z,20.13
2023-01-19T00:18:07.613Z,19.40
2023-01-19T00:20:35.906Z,20.17
2023-01-19T00:23:04.764Z,19.37
2023-01-19T00:25:32.152Z,19.30
2023-01-19T00:28:01.512Z,19.17
2023-01-19T00:30:28.969Z,19.43
2023-01-19T00:32:56.504Z,19.37
2023-01-19T00:35:23.678Z,19.43
2023-01-19T00:37:50.826Z,20.67
2023-01-19T00:40:18.237Z,19.87
2023-01-19T00:42:45.458Z,21.13
2023-01-19T00:45:14.221Z,22.93
2023-01-19T00:47:41.639Z,22.33
2023-01-19T00:50:11.722Z,22.80
2023-01-19T00:52:42.496Z,22.97
2023-01-19T00:55:10.461Z,22.90
2023-01-19T00:57:38.327Z,22.20
2023-01-19T01:00:06.753Z,23.03
2023-01-19T01:02:34.310Z,23.53
2023-01-19T01:05:02.988Z,22.00
2023-01-19T01:07:30.874Z,22.47
2023-01-19T01:09:58.036Z,23.10
2023-01-19T01:12:25.529Z,21.10
2023-01-19T01:14:52.957Z,22.40
2023-01-19T01:17:24.926Z,22.33
2023-01-19T01:19:52.575Z,22.80
2023-01-19T01:22:19.824Z,22.80
2023-01-19T01:24:46.953Z,21.87
2023-01-19T01:27:14.090Z,22.63
2023-01-19T01:29:46.436Z,22.10
2023-01-19T01:32:16.816Z,20.57
2023-01-19T01:34:43.984Z,21.67
2023-01-19T01:37:11.440Z,21.10
2023-01-19T01:39:38.603Z,21.77
2023-01-19T01:42:15.079Z,21.77
2023-01-19T01:44:50.230Z,21.93
2023-01-19T01:47:25.068Z,20.80
2023-01-19T01:49:54.539Z,20.27
2023-01-19T01:52:23.004Z,20.83
2023-01-19T01:54:50.373Z,21.50
2023-01-19T01:57:17.511Z,20.80
2023-01-19T01:59:46.352Z,20.03
2023-01-19T02:02:34.258Z,19.60
2023-01-19T02:05:04.184Z,21.63
2023-01-19T02:07:58.148Z,20.10
2023-01-19T02:10:44.128Z,20.67
2023-01-19T02:13:17.383Z,19.77
2023-01-19T02:15:44.498Z,19.77
2023-01-19T02:18:11.809Z,19.10
2023-01-19T02:20:40.238Z,19.30
2023-01-19T02:23:09.374Z,18.17
2023-01-19T02:25:36.520Z,19.10
2023-01-19T02:28:04.253Z,19.97
2023-01-19T02:30:32.956Z,18.27
2023-01-19T02:33:00.371Z,18.93
2023-01-19T02:35:27.887Z,17.83
2023-01-19T02:37:55.125Z,17.80
2023-01-19T02:40:24.925Z,18.17
2023-01-19T02:42:53.656Z,18.87
2023-01-19T02:45:21.768Z,18.47
2023-01-19T02:47:50.885Z,17.20
2023-01-19T02:50:31.665Z,18.17
2023-01-19T02:53:03.631Z,17.90
2023-01-19T02:55:32.230Z,18.17
2023-01-19T02:57:59.321Z,18.20
2023-01-19T03:00:41.834Z,16.90
2023-01-19T03:03:18.123Z,17.27
2023-01-19T03:05:45.258Z,17.47
2023-01-19T03:08:30.779Z,18.07
2023-01-19T03:11:02.178Z,16.93
2023-01-19T03:13:35.472Z,16.47
2023-01-19T03:16:05.549Z,16.47
2023-01-19T03:18:34.395Z,16.13
2023-01-19T03:21:03.429Z,15.93
2023-01-19T03:23:32.201Z,16.80
2023-01-19T03:26:00.397Z,16.03
2023-01-19T03:28:28.817Z,17.17
2023-01-19T03:31:12.440Z,16.37
2023-01-19T03:33:42.745Z,16.33
2023-01-19T03:36:14.477Z,16.30
2023-01-19T03:38:43.134Z,15.40
2023-01-19T03:41:12.210Z,15.53
2023-01-19T03:43:39.722Z,15.23
2023-01-19T03:46:07.201Z,15.87
2023-01-19T03:48:34.601Z,15.27
2023-01-19T03:51:06.783Z,15.40
2023-01-19T03:53:34.371Z,15.27
2023-01-19T03:56:01.772Z,16.07
2023-01-19T03:58:28.966Z,16.70
2023-01-19T04:00:56.126Z,16.23
2023-01-19T04:03:23.311Z,15.97
2023-01-19T04:05:50.461Z,16.13
2023-01-19T04:08:17.608Z,15.67
2023-01-19T04:10:44.800Z,15.33
2023-01-19T04:13:11.900Z,17.00
2023-01-19T04:15:39.063Z,15.53
2023-01-19T04:18:06.983Z,16.47
2023-01-19T04:20:34.201Z,17.57
2023-01-19T04:23:02.413Z,16.80
2023-01-19T04:25:29.721Z,16.23
2023-01-19T04:27:58.389Z,16.03
2023-01-19T04:30:25.784Z,17.03
2023-01-19T04:32:53.659Z,16.60
2023-01-19T04:35:22.307Z,16.00
2023-01-19T04:37:49.468Z,16.97
2023-01-19T04:40:16.651Z,18.43
2023-01-19T04:42:45.195Z,18.87
2023-01-19T04:45:13.000Z,20.63
2023-01-19T04:47:40.279Z,20.10
2023-01-19T04:50:07.815Z,20.57
2023-01-19T04:52:35.376Z,21.27
2023-01-19T04:55:03.040Z,19.17
2023-01-19T04:57:30.764Z,19.73
2023-01-19T04:59:58.242Z,19.00
2023-01-19T05:02:25.713Z,21.77
2023-01-19T05:04:53.297Z,22.83
2023-01-19T05:07:20.418Z,23.57
2023-01-19T05:09:47.560Z,22.47
2023-01-19T05:12:14.667Z,22.10
2023-01-19T05:14:41.839Z,22.23
2023-01-19T05:17:08.997Z,23.47
2023-01-19T05:19:36.233Z,22.97
2023-01-19T05:22:04.156Z,22.90
2023-01-19T05:24:31.940Z,22.67
2023-01-19T05:26:59.261Z,23.77
2023-01-19T05:29:26.398Z,21.47
2023-01-19T05:31:53.567Z,23.57
2023-01-19T05:34:20.769Z,23.23
2023-01-19T05:36:47.901Z,21.43
2023-01-19T05:39:15.080Z,22.47
2023-01-19T05:41:42.203Z,21.70
2023-01-19T05:44:10.385Z,22.07
2023-01-19T05:46:37.886Z,22.47
2023-01-19T05:49:07.276Z,21.13
2023-01-19T05:51:37.955Z,22.50
2023-01-19T05:54:05.753Z,22.00
2023-01-19T05:56:32.984Z,21.07
2023-01-19T05:59:00.563Z,22.50
2023-01-19T06:01:28.183Z,22.13
2023-01-19T06:03:55.462Z,19.93
2023-01-19T06:06:22.741Z,19.17
2023-01-19T06:08:49.915Z,18.20
2023-01-19T06:11:17.213Z,19.17
2023-01-19T06:13:44.342Z,18.67
2023-01-19T06:16:11.903Z,18.67
2023-01-19T06:18:39.177Z,19.50
2023-01-19T06:21:12.337Z,17.87
2023-01-19T06:23:39.464Z,20.53
2023-01-19T06:26:06.606Z,21.43
2023-01-19T06:28:33.784Z,21.30
2023-01-19T06:31:01.119Z,22.43
2023-01-19T06:33:28.769Z,21.93
2023-01-19T06:35:56.314Z,21.87
2023-01-19T06:38:23.518Z,22.77
2023-01-19T06:40:54.768Z,21.83
2023-01-19T06:43:22.048Z,22.23
2023-01-19T06:45:50.208Z,23.70
2023-01-19T06:48:17.479Z,23.30
2023-01-19T06:50:48.150Z,22.60
2023-01-19T06:53:16.678Z,23.37
2023-01-19T06:55:47.251Z,22.13
2023-01-19T06:58:14.395Z,24.90
2023-01-19T07:00:41.584Z,23.90
2023-01-19T07:03:08.966Z,24.03
2023-01-19T07:05:36.544Z,23.57
2023-01-19T07:08:04.070Z,23.57
2023-01-19T07:11:26.140Z,21.80
2023-01-19T07:13:18.581Z,21.80
2023-01-19T07:15:45.888Z,21.80
2023-01-19T07:18:13.182Z,20.20
2023-01-19T07:20:40.402Z,21.57
2023-01-19T07:23:07.521Z,22.13
2023-01-19T07:25:34.698Z,20.87
2023-01-19T07:28:02.140Z,21.93
2023-01-19T07:30:29.386Z,22.70
2023-01-19T07:32:58.160Z,22.03
2023-01-19T07:35:26.070Z,20.50
2023-01-19T07:37:53.293Z,21.17
2023-01-19T07:40:21.553Z,22.97
2023-01-19T07:42:51.042Z,24.37
2023-01-19T07:45:19.358Z,27.33
2023-01-19T07:47:48.681Z,28.00
2023-01-19T07:50:16.327Z,26.30
2023-01-19T07:52:43.582Z,26.80
2023-01-19T07:55:11.037Z,25.00
2023-01-19T07:57:38.301Z,24.83
2023-01-19T08:00:05.736Z,21.47
2023-01-19T08:02:35.863Z,19.13
2023-01-19T08:05:02.992Z,14.73
2023-01-19T08:07:30.390Z,14.00
2023-01-19T08:09:57.542Z,13.43
2023-01-19T08:12:24.657Z,13.50
2023-01-19T08:14:51.818Z,12.63
2023-01-19T08:17:19.478Z,12.07
2023-01-19T08:19:46.633Z,12.77
2023-01-19T08:22:13.760Z,11.50
2023-01-19T08:24:40.899Z,12.53
2023-01-19T08:27:09.891Z,11.73
2023-01-19T08:29:37.090Z,23.80
2023-01-19T08:32:04.853Z,22.53
2023-01-19T08:34:32.096Z,18.87
2023-01-19T08:36:59.612Z,19.37
2023-01-19T08:39:27.468Z,18.23
2023-01-19T08:41:54.732Z,22.30
2023-01-19T08:44:21.951Z,18.77
2023-01-19T08:46:49.159Z,17.70
2023-01-19T08:49:17.103Z,18.27
2023-01-19T08:51:47.324Z,16.67
2023-01-19T08:54:16.680Z,17.40
2023-01-19T08:56:44.747Z,16.10
2023-01-19T08:59:13.214Z,16.47
2023-01-19T09:01:41.540Z,17.30
2023-01-19T09:04:08.767Z,21.10
2023-01-19T09:06:36.002Z,23.03
2023-01-19T09:09:03.298Z,22.03
2023-01-19T09:11:30.884Z,21.40
2023-01-19T09:13:58.070Z,22.13
2023-01-19T09:16:27.102Z,29.57
2023-01-19T09:18:55.425Z,18.43
2023-01-19T09:21:22.563Z,21.63
2023-01-19T09:23:49.822Z,20.00
2023-01-19T09:26:17.387Z,21.60
2023-01-19T09:28:44.526Z,20.97
2023-01-19T09:31:11.824Z,17.13
2023-01-19T09:33:39.126Z,16.80
2023-01-19T09:36:06.431Z,13.73
2023-01-19T09:38:34.038Z,13.93
2023-01-19T09:41:01.686Z,12.77
2023-01-19T09:43:49.369Z,14.00
2023-01-19T09:46:37.590Z,14.33
2023-01-19T09:49:11.108Z,11.80
2023-01-19T09:51:40.159Z,10.47
2023-01-19T09:54:13.119Z,10.47
2023-01-19T09:56:40.322Z,9.47
2023-01-19T09:59:13.508Z,10.40
2023-01-19T10:02:00.923Z,10.10
2023-01-19T10:04:28.092Z,9.13
2023-01-19T10:07:00.486Z,10.30
2023-01-19T10:09:30.622Z,9.30
2023-01-19T10:12:11.550Z,9.70
2023-01-19T10:15:05.033Z,10.17
2023-01-19T10:17:32.131Z,9.80
2023-01-19T10:20:02.089Z,9.93
2023-01-19T10:22:29.679Z,9.73
2023-01-19T10:24:58.084Z,8.53
2023-01-19T10:27:27.995Z,9.27
2023-01-19T10:29:55.565Z,9.30
2023-01-19T10:32:27.331Z,9.40
2023-01-19T10:34:54.966Z,9.87
2023-01-19T10:37:29.744Z,9.20
2023-01-19T10:40:03.174Z,9.83
2023-01-19T10:42:31.003Z,9.87
2023-01-19T10:44:58.207Z,10.70
2023-01-19T10:47:34.297Z,10.10
2023-01-19T10:50:06.942Z,10.13
2023-01-19T10:52:36.036Z,10.07
2023-01-19T10:55:04.878Z,8.57
2023-01-19T10:57:33.843Z,7.73
2023-01-19T11:00:01.022Z,7.60
2023-01-19T11:02:29.787Z,7.40
2023-01-19T11:05:01.160Z,7.47
2023-01-19T11:07:28.332Z,7.60
2023-01-19T11:10:14.146Z,7.83
2023-01-19T11:12:46.498Z,7.00
2023-01-19T11:15:20.232Z,6.90
2023-01-19T11:17:48.447Z,7.50
2023-01-19T11:20:30.183Z,6.70
2023-01-19T11:23:08.045Z,6.47
2023-01-19T11:25:36.745Z,7.00
2023-01-19T11:28:04.368Z,6.80
2023-01-19T11:30:31.873Z,6.57
2023-01-19T11:32:59.191Z,6.90
2023-01-19T11:35:34.270Z,7.17
2023-01-19T11:38:14.287Z,6.60
2023-01-19T11:40:42.455Z,7.30
2023-01-19T11:43:13.996Z,7.50
2023-01-19T11:45:41.239Z,7.57
2023-01-19T11:48:13.280Z,8.10
2023-01-19T11:50:42.965Z,7.93
2023-01-19T11:53:10.097Z,7.73
2023-01-19T11:55:55.922Z,7.67
2023-01-19T11:58:23.542Z,8.87
2023-01-19T12:00:50.739Z,8.33
2023-01-19T12:03:20.421Z,7.63
2023-01-19T12:05:49.871Z,8.77
2023-01-19T12:08:23.311Z,9.73
2023-01-19T12:10:51.668Z,7.90
2023-01-19T12:13:20.365Z,8.93
2023-01-19T12:15:48.496Z,8.30
2023-01-19T12:18:26.395Z,6.90
2023-01-19T12:20:54.836Z,8.57
2023-01-19T12:23:43.223Z,9.40
2023-01-19T12:26:27.874Z,8.67
2023-01-19T12:28:57.428Z,8.57
2023-01-19T12:31:24.830Z,8.13
2023-01-19T12:33:52.374Z,7.10
2023-01-19T12:36:29.152Z,8.00
2023-01-19T12:38:57.367Z,8.57
2023-01-19T12:41:35.166Z,8.23
2023-01-19T12:44:11.317Z,9.13
2023-01-19T12:46:50.131Z,8.60
2023-01-19T12:49:17.272Z,8.90
2023-01-19T12:51:44.432Z,9.77
2023-01-19T12:54:21.288Z,10.03
2023-01-19T12:56:48.522Z,9.50
2023-01-19T12:59:28.482Z,9.93
2023-01-19T13:02:14.356Z,8.97
2023-01-19T13:04:41.577Z,9.10
2023-01-19T13:07:10.650Z,9.63
2023-01-19T13:09:39.309Z,8.53
2023-01-19T13:12:25.874Z,8.90
2023-01-19T13:15:12.978Z,8.93
2023-01-19T13:17:50.077Z,9.57
2023-01-19T13:20:28.072Z,9.13
2023-01-19T13:23:15.157Z,9.67
2023-01-19T13:25:45.626Z,8.47
2023-01-19T13:28:14.649Z,9.67
2023-01-19T13:30:49.668Z,10.00
2023-01-19T13:33:20.382Z,8.70
2023-01-19T13:35:55.370Z,9.30
2023-01-19T13:38:22.936Z,8.43
2023-01-19T13:40:50.352Z,7.83
2023-01-19T13:43:19.509Z,9.40
2023-01-19T13:45:53.366Z,9.27
2023-01-19T13:48:25.069Z,8.80
2023-01-19T13:51:08.887Z,8.37
2023-01-19T13:53:36.590Z,8.83
2023-01-19T13:56:10.503Z,9.03
2023-01-19T13:58:37.742Z,9.50
2023-01-19T14:01:04.922Z,8.80
2023-01-19T14:03:32.150Z,8.70
2023-01-19T14:05:59.531Z,9.00
2023-01-19T14:08:26.793Z,8.50
2023-01-19T14:10:56.674Z,8.73
2023-01-19T14:13:29.856Z,8.10
2023-01-19T14:15:58.426Z,9.20
2023-01-19T14:18:27.502Z,8.90
2023-01-19T14:20:54.661Z,9.60
2023-01-19T14:23:40.311Z,9.23
2023-01-19T14:26:28.097Z,9.43
2023-01-19T14:28:55.241Z,9.27
2023-01-19T14:31:22.435Z,9.77
2023-01-19T14:33:50.780Z,10.10
2023-01-19T14:36:20.999Z,9.50
2023-01-19T14:38:49.913Z,9.40
2023-01-19T14:41:24.864Z,10.10
2023-01-19T14:43:52.097Z,10.07
2023-01-19T14:46:20.049Z,10.20
2023-01-19T14:48:48.354Z,10.60
2023-01-19T14:51:23.691Z,10.10
2023-01-19T14:53:52.666Z,9.80
2023-01-19T14:56:34.022Z,9.83
2023-01-19T14:59:02.681Z,9.77
2023-01-19T15:01:31.155Z,10.20
2023-01-19T15:03:58.943Z,9.80
2023-01-19T15:06:26.587Z,9.27
2023-01-19T15:08:54.241Z,10.27
2023-01-19T15:11:27.550Z,10.03
2023-01-19T15:13:55.513Z,10.47
2023-01-19T15:16:23.546Z,10.47
2023-01-19T15:18:50.756Z,9.83
2023-01-19T15:21:23.568Z,10.60
2023-01-19T15:23:50.832Z,10.10
2023-01-19T15:26:19.117Z,11.33
2023-01-19T15:28:46.943Z,11.37
2023-01-19T15:31:15.675Z,11.67
2023-01-19T15:33:42.898Z,12.43
2023-01-19T15:36:14.428Z,12.03
2023-01-19T15:38:42.622Z,13.03
2023-01-19T15:41:24.481Z,12.87
2023-01-19T15:43:51.903Z,13.37
2023-01-19T15:46:22.401Z,14.10
2023-01-19T15:48:53.483Z,12.90
2023-01-19T15:51:22.146Z,11.93
2023-01-19T15:53:49.704Z,12.87
2023-01-19T15:56:17.895Z,14.23
2023-01-19T15:58:45.220Z,13.70
2023-01-19T16:01:16.176Z,13.20
2023-01-19T16:03:43.765Z,13.50
2023-01-19T16:06:11.130Z,13.77
2023-01-19T16:08:38.583Z,12.33
2023-01-19T16:11:09.763Z,12.97
2023-01-19T16:13:37.083Z,14.07
2023-01-19T16:16:08.532Z,14.50
2023-01-19T16:18:35.734Z,14.83
2023-01-19T16:21:02.865Z,14.60
2023-01-19T16:23:30.071Z,16.07
2023-01-19T16:25:58.381Z,14.77
2023-01-19T16:28:26.127Z,15.53
2023-01-19T16:30:53.518Z,15.03
2023-01-19T16:33:20.720Z,14.73
2023-01-19T16:35:47.997Z,15.43
2023-01-19T16:38:15.505Z,14.93
2023-01-19T16:40:44.591Z,15.70
2023-01-19T16:43:12.345Z,15.37
2023-01-19T16:45:56.079Z,14.83
2023-01-19T16:48:23.244Z,14.50
2023-01-19T16:51:06.668Z,15.37
2023-01-19T16:53:35.281Z,15.13
2023-01-19T16:56:06.567Z,15.47
2023-01-19T16:58:34.003Z,14.93
2023-01-19T17:01:01.185Z,15.23
2023-01-19T17:03:28.387Z,15.53
2023-01-19T17:05:55.521Z,15.73
2023-01-19T17:08:22.813Z,16.23
2023-01-19T17:10:50.032Z,15.50
2023-01-19T17:13:17.235Z,16.10
2023-01-19T17:15:44.466Z,16.73
2023-01-19T17:18:11.655Z,16.53
2023-01-19T17:20:38.838Z,16.77
2023-01-19T17:23:05.966Z,16.70
2023-01-19T17:25:33.095Z,16.87
2023-01-19T17:28:01.281Z,16.87
2023-01-19T17:30:28.609Z,16.47
2023-01-19T17:32:55.862Z,17.23
2023-01-19T17:35:23.021Z,16.40
2023-01-19T17:37:53.475Z,16.27
2023-01-19T17:40:20.673Z,16.97
2023-01-19T17:42:48.006Z,16.43
2023-01-19T17:45:15.214Z,16.93
2023-01-19T17:47:42.333Z,16.83
2023-01-19T17:50:09.863Z,17.20
2023-01-19T17:52:38.040Z,17.83
2023-01-19T17:55:05.387Z,17.97
2023-01-19T17:57:32.516Z,17.27
2023-01-19T17:59:59.634Z,18.13
2023-01-19T18:02:26.847Z,18.20
2023-01-19T18:04:54.173Z,19.53
2023-01-19T18:07:21.317Z,18.33
2023-01-19T18:09:48.503Z,18.43
2023-01-19T18:12:16.077Z,20.30
2023-01-19T18:14:43.277Z,21.73
2023-01-19T18:17:10.443Z,22.20
2023-01-19T18:19:37.617Z,20.13
2023-01-19T18:22:04.736Z,20.27
2023-01-19T18:24:31.918Z,21.10
2023-01-19T18:26:59.126Z,19.90
2023-01-19T18:29:26.261Z,20.87
2023-01-19T18:31:53.446Z,19.87
2023-01-19T18:34:20.652Z,19.57
2023-01-19T18:36:47.953Z,19.63
2023-01-19T18:39:15.135Z,20.17
2023-01-19T18:41:42.302Z,21.43
2023-01-19T18:44:10.422Z,21.17
2023-01-19T18:46:37.999Z,23.93
2023-01-19T18:49:05.658Z,22.53
2023-01-19T18:51:32.931Z,19.07
2023-01-19T18:54:00.438Z,19.77
2023-01-19T18:56:27.639Z,19.10
2023-01-19T18:58:54.871Z,19.43
2023-01-19T19:01:22.118Z,20.83
2023-01-19T19:03:49.673Z,21.07
2023-01-19T19:06:19.027Z,20.30
2023-01-19T19:08:46.164Z,20.03
2023-01-19T19:11:14.215Z,21.33
2023-01-19T19:13:41.520Z,19.83
2023-01-19T19:16:09.305Z,21.27
2023-01-19T19:18:37.048Z,20.43
2023-01-19T19:21:08.146Z,21.00
2023-01-19T19:23:35.354Z,20.53
2023-01-19T19:26:03.640Z,20.13
2023-01-19T19:28:30.964Z,19.80
2023-01-19T19:31:04.991Z,20.03
2023-01-19T19:33:32.219Z,20.03
2023-01-19T19:35:59.856Z,20.37
2023-01-19T19:38:27.613Z,19.90
2023-01-19T19:40:57.179Z,19.93
2023-01-19T19:43:25.206Z,20.73
2023-01-19T19:46:02.280Z,19.80
2023-01-19T19:48:29.605Z,19.63
2023-01-19T19:51:01.989Z,20.77
2023-01-19T19:53:35.743Z,20.90
2023-01-19T19:56:03.689Z,19.97
2023-01-19T19:58:31.440Z,20.63
2023-01-19T20:00:58.773Z,20.43
2023-01-19T20:03:28.745Z,19.87
2023-01-19T20:05:55.908Z,20.27
2023-01-19T20:08:23.944Z,21.37
2023-01-19T20:10:51.111Z,19.23
2023-01-19T20:13:19.279Z,20.07
2023-01-19T20:15:46.473Z,19.17
2023-01-19T20:18:13.599Z,18.47
2023-01-19T20:20:40.756Z,19.43
2023-01-19T20:23:07.935Z,20.07
2023-01-19T20:25:38.966Z,18.17
2023-01-19T20:28:06.120Z,19.43
2023-01-19T20:30:33.311Z,20.40
2023-01-19T20:33:00.527Z,19.70
2023-01-19T20:35:27.664Z,19.13
2023-01-19T20:37:54.887Z,19.00
2023-01-19T20:40:22.086Z,18.97
2023-01-19T20:42:49.248Z,19.17
2023-01-19T20:45:16.434Z,18.13
2023-01-19T20:47:43.544Z,18.53
2023-01-19T20:50:11.043Z,18.17
2023-01-19T20:52:38.171Z,17.93
2023-01-19T20:55:07.404Z,18.33
2023-01-19T20:57:34.543Z,18.23
2023-01-19T21:00:01.648Z,17.00
2023-01-19T21:02:28.884Z,17.87
2023-01-19T21:04:56.091Z,17.97
2023-01-19T21:07:23.246Z,19.07
2023-01-19T21:09:50.372Z,18.40
2023-01-19T21:12:17.567Z,19.20
2023-01-19T21:14:45.907Z,18.30
2023-01-19T21:17:13.078Z,17.60
2023-01-19T21:19:40.230Z,18.57
2023-01-19T21:22:07.420Z,18.57
2023-01-19T21:24:34.603Z,18.07
2023-01-19T21:27:01.738Z,18.23
2023-01-19T21:29:28.880Z,18.33
2023-01-19T21:31:56.108Z,18.60
2023-01-19T21:34:23.326Z,19.37
2023-01-19T21:36:50.513Z,19.43
2023-01-19T21:39:17.668Z,18.20
2023-01-19T21:41:45.347Z,18.27
2023-01-19T21:44:13.419Z,18.57
2023-01-19T21:46:40.631Z,18.60
2023-01-19T21:49:08.923Z,18.40
2023-01-19T21:51:37.261Z,18.33
2023-01-19T21:54:05.258Z,17.73
2023-01-19T21:56:32.852Z,17.90
2023-01-19T21:59:03.508Z,18.70
2023-01-19T22:01:31.950Z,18.30
2023-01-19T22:03:59.423Z,18.87
2023-01-19T22:06:27.117Z,18.03
2023-01-19T22:08:54.805Z,19.17
2023-01-19T22:11:22.218Z,18.73
2023-01-19T22:13:49.345Z,18.70
2023-01-19T22:16:18.309Z,19.00
2023-01-19T22:18:46.791Z,19.00
2023-01-19T22:21:15.336Z,20.07
2023-01-19T22:23:42.932Z,18.50
2023-01-19T22:26:10.591Z,19.67
2023-01-19T22:28:38.106Z,19.13
2023-01-19T22:31:09.963Z,18.53
2023-01-19T22:33:37.157Z,18.73
2023-01-19T22:36:16.411Z,19.77
2023-01-19T22:38:44.669Z,19.53
2023-01-19T22:41:12.732Z,20.03
2023-01-19T22:43:39.889Z,20.80
2023-01-19T22:46:08.722Z,21.33
2023-01-19T22:48:36.454Z,20.60
2023-01-19T22:51:03.595Z,21.33
2023-01-19T22:53:33.604Z,21.47
2023-01-19T22:56:00.807Z,21.23
2023-01-19T22:58:27.964Z,22.50
2023-01-19T23:00:55.201Z,21.77
2023-01-19T23:03:22.417Z,21.80
2023-01-19T23:05:49.579Z,22.50
2023-01-19T23:08:16.755Z,22.73
2023-01-19T23:10:43.869Z,22.03
2023-01-19T23:13:10.994Z,23.10
2023-01-19T23:15:38.164Z,21.50
2023-01-19T23:18:05.315Z,21.70
2023-01-19T23:20:32.444Z,23.60
2023-01-19T23:22:59.634Z,23.33
2023-01-19T23:25:26.835Z,22.23
2023-01-19T23:27:54.001Z,22.13
2023-01-19T23:30:21.239Z,21.50
2023-01-19T23:32:49.226Z,22.00
2023-01-19T23:35:16.724Z,22.53
2023-01-19T23:37:43.903Z,22.53
2023-01-19T23:40:11.796Z,21.60
2023-01-19T23:42:38.922Z,22.07
2023-01-19T23:45:06.380Z,22.00
2023-01-19T23:47:35.369Z,22.10
2023-01-19T23:50:03.223Z,21.53
2023-01-19T23:52:30.472Z,20.80
2023-01-19T23:54:57.782Z,20.10
2023-01-19T23:57:24.936Z,19.67
2023-01-19T23:59:52.121Z,20.67
